WXM80 ListenWXM80 Stop

You find our weather info also at:

UK Metoffice

WeatherCloud

Weather Underground

Northeastern Weather Network

AWEKAS

Citizen Weather Observer Program (CWOP)

HAMweather, WeatherForYou, PWS Weather


Weather Underground History page Text

Daily Summary for September 14, 2016 Units:  English    Metric   Both
« Previous Day
Next Day »
Daily Weekly Monthly Yearly Custom
  High: Low: Average:
Temperature: 93.1 °F 67.2 °F 75.7 °F
Dew Point: 69.7 °F 59.6 °F 65 °F
Humidity: 94 % 37 % 73 %
Wind Speed: 9.5 mph 0.0 mph 2.5 mph
Wind Gust: 16.1 mph - -
Wind:- - SW
Pressure: 30.10 in 29.92 in -
Precipitation: 0.08 in    
Historical Graphs
 
 
Tabular Data for September 14, 2016
Time Temperature Dew Point Pressure Wind Wind Speed Wind Gust Humidity Rainfall Rate (Hourly)
00:01 69.3 °F 63.9 °F 30.09 in SW 0.5 mph 3.5 mph 83 % 0.00 in
00:06 69.2 °F 63.8 °F 30.09 in SW 0.4 mph 2.3 mph 83 % 0.00 in
00:11 69.2 °F 63.8 °F 30.09 in Calm   2.3 mph 83 % 0.00 in
00:16 69.2 °F 63.8 °F 30.09 in WSW 0.3 mph 2.3 mph 83 % 0.00 in
00:21 69.1 °F 64.1 °F 30.09 in WSW 1.5 mph 3.5 mph 84 % 0.00 in
00:26 69.1 °F 64.1 °F 30.09 in SW 1.2 mph 4.0 mph 84 % 0.00 in
00:31 69.0 °F 64.0 °F 30.08 in WSW 1.0 mph 5.8 mph 84 % 0.00 in
00:36 69.0 °F 64.0 °F 30.08 in SW 1.0 mph 3.5 mph 84 % 0.00 in
00:41 68.9 °F 63.9 °F 30.08 in SW 1.8 mph 4.6 mph 84 % 0.00 in
00:47 68.9 °F 63.9 °F 30.08 in WSW 0.2 mph 2.3 mph 84 % 0.00 in
00:52 68.9 °F 63.9 °F 30.08 in WSW 0.2 mph 3.5 mph 84 % 0.00 in
00:57 68.8 °F 63.8 °F 30.08 in Calm   1.2 mph 84 % 0.00 in
01:02 68.8 °F 63.8 °F 30.08 in Calm     84 % 0.00 in
01:07 68.7 °F 63.7 °F 30.08 in WSW 0.4 mph 1.2 mph 84 % 0.00 in
01:12 68.7 °F 63.7 °F 30.08 in WSW 0.4 mph 2.3 mph 84 % 0.00 in
01:17 68.6 °F 63.6 °F 30.08 in Calm     84 % 0.00 in
01:22 68.5 °F 63.1 °F 30.08 in WSW 0.9 mph 3.5 mph 83 % 0.00 in
01:27 68.5 °F 63.1 °F 30.08 in WSW 0.8 mph 3.5 mph 83 % 0.00 in
01:32 68.4 °F 63.0 °F 30.08 in Calm     83 % 0.00 in
01:37 68.3 °F 62.9 °F 30.07 in Calm   1.2 mph 83 % 0.00 in
01:42 68.2 °F 62.8 °F 30.07 in Calm   1.2 mph 83 % 0.00 in
01:47 68.1 °F 62.7 °F 30.07 in Calm   1.2 mph 83 % 0.00 in
01:53 68.0 °F 62.3 °F 30.07 in SW 0.1 mph 3.5 mph 82 % 0.00 in
01:58 67.9 °F 62.2 °F 30.07 in SW 0.2 mph 2.3 mph 82 % 0.00 in
02:03 67.8 °F 62.1 °F 30.07 in Calm     82 % 0.00 in
02:08 67.7 °F 62.0 °F 30.07 in SW 0.4 mph 2.3 mph 82 % 0.00 in
02:13 67.6 °F 61.9 °F 30.07 in WSW 0.4 mph 2.0 mph 82 % 0.00 in
02:18 67.5 °F 61.8 °F 30.07 in Calm   1.2 mph 82 % 0.00 in
02:23 67.4 °F 61.7 °F 30.07 in SW 0.1 mph 1.2 mph 82 % 0.00 in
02:28 67.4 °F 61.7 °F 30.06 in SW 0.3 mph 1.0 mph 82 % 0.00 in
02:33 67.3 °F 61.6 °F 30.06 in WSW 0.8 mph 2.3 mph 82 % 0.00 in
02:38 67.3 °F 61.3 °F 30.06 in WSW 0.5 mph 3.5 mph 81 % 0.00 in
02:44 67.2 °F 61.2 °F 30.06 in Calm   1.2 mph 81 % 0.00 in
02:49 67.2 °F 61.2 °F 30.06 in SW 1.0 mph 2.3 mph 81 % 0.00 in
02:54 67.2 °F 61.2 °F 30.06 in WSW 0.8 mph 2.3 mph 81 % 0.00 in
02:59 67.2 °F 61.2 °F 30.06 in WSW 0.2 mph 1.2 mph 81 % 0.00 in
03:04 67.2 °F 60.8 °F 30.05 in West 0.3 mph 4.6 mph 80 % 0.00 in
03:09 67.2 °F 60.8 °F 30.05 in WSW 0.2 mph 1.2 mph 80 % 0.00 in
03:14 67.2 °F 60.8 °F 30.06 in SSW 1.7 mph 3.5 mph 80 % 0.00 in
03:19 67.2 °F 60.8 °F 30.06 in WSW 1.5 mph 3.5 mph 80 % 0.00 in
03:24 67.2 °F 60.8 °F 30.05 in WSW 1.2 mph 3.0 mph 80 % 0.00 in
03:29 67.3 °F 60.9 °F 30.05 in SW 1.0 mph 3.5 mph 80 % 0.00 in
03:35 67.3 °F 60.9 °F 30.05 in SW 3.2 mph 4.6 mph 80 % 0.00 in
03:40 67.3 °F 61.3 °F 30.05 in SW 2.6 mph 4.6 mph 81 % 0.00 in
03:45 67.4 °F 61.4 °F 30.05 in SW 1.4 mph 3.5 mph 81 % 0.00 in
03:50 67.5 °F 61.5 °F 30.05 in SW 1.7 mph 3.5 mph 81 % 0.00 in
03:55 67.6 °F 61.9 °F 30.05 in SW 1.5 mph 4.0 mph 82 % 0.00 in
04:00 67.7 °F 62.0 °F 30.05 in SW 1.8 mph 3.5 mph 82 % 0.00 in
04:05 67.8 °F 62.1 °F 30.05 in SW 1.9 mph 3.5 mph 82 % 0.00 in
04:10 67.8 °F 62.1 °F 30.05 in SW 0.7 mph 3.5 mph 82 % 0.00 in
04:15 67.9 °F 62.5 °F 30.05 in SW 2.9 mph 3.5 mph 83 % 0.00 in
04:20 67.9 °F 62.5 °F 30.05 in WSW 1.9 mph 4.6 mph 83 % 0.00 in
04:25 67.9 °F 62.5 °F 30.05 in SW 1.0 mph 9.0 mph 83 % 0.00 in
04:31 68.0 °F 62.6 °F 30.05 in SW 1.0 mph 5.0 mph 83 % 0.00 in
04:36 68.0 °F 62.7 °F 30.05 in SW 3.0 mph 9.0 mph 83 % 0.00 in
04:41 68.1 °F 63.1 °F 30.05 in SW 3.0 mph 5.0 mph 84 % 0.00 in
04:46 68.1 °F 63.1 °F 30.05 in SW 1.0 mph 5.0 mph 84 % 0.00 in
04:51 68.1 °F 63.1 °F 30.05 in SW 2.0 mph 5.0 mph 84 % 0.00 in
04:56 68.1 °F 63.1 °F 30.05 in SW 2.0 mph 6.0 mph 84 % 0.00 in
05:01 68.0 °F 63.0 °F 30.05 in SW 2.8 mph 3.5 mph 84 % 0.00 in
05:06 68.0 °F 63.0 °F 30.05 in SW 1.3 mph 3.5 mph 84 % 0.00 in
05:11 67.9 °F 62.9 °F 30.04 in WSW 1.6 mph 6.9 mph 84 % 0.00 in
05:16 67.9 °F 63.2 °F 30.05 in WSW 2.7 mph 5.8 mph 85 % 0.00 in
05:21 67.9 °F 63.2 °F 30.05 in SW 0.4 mph 1.2 mph 85 % 0.00 in
05:26 67.8 °F 63.1 °F 30.05 in WSW 1.8 mph 3.5 mph 85 % 0.00 in
05:31 67.7 °F 63.0 °F 30.05 in WSW 3.0 mph 4.6 mph 85 % 0.00 in
05:36 67.7 °F 63.0 °F 30.05 in SSW 1.9 mph 5.0 mph 85 % 0.00 in
05:41 67.6 °F 62.9 °F 30.05 in WSW 1.3 mph 3.5 mph 85 % 0.00 in
05:46 67.6 °F 62.9 °F 30.06 in SSW 4.4 mph 6.9 mph 85 % 0.00 in
05:51 67.6 °F 62.9 °F 30.05 in SW 5.0 mph 6.9 mph 85 % 0.00 in
05:56 67.6 °F 62.9 °F 30.06 in West 2.7 mph 3.5 mph 85 % 0.00 in
06:02 67.6 °F 62.9 °F 30.06 in SW 2.6 mph 5.8 mph 85 % 0.00 in
06:07 67.6 °F 62.9 °F 30.06 in SW 2.8 mph 3.5 mph 85 % 0.00 in
06:12 67.6 °F 62.9 °F 30.06 in WSW 2.0 mph 3.5 mph 85 % 0.00 in
06:17 67.6 °F 62.9 °F 30.05 in West 2.7 mph 6.9 mph 85 % 0.00 in
06:22 67.6 °F 62.9 °F 30.05 in SSW 1.5 mph 3.5 mph 85 % 0.00 in
06:27 67.5 °F 62.8 °F 30.06 in WSW 3.2 mph 6.9 mph 85 % 0.00 in
06:32 67.4 °F 62.7 °F 30.05 in SSW 2.3 mph 4.6 mph 85 % 0.00 in
06:37 67.4 °F 62.7 °F 30.05 in SW 1.3 mph 3.5 mph 85 % 0.00 in
06:42 67.3 °F 62.3 °F 30.05 in SW 1.4 mph 3.5 mph 84 % 0.00 in
06:47 67.3 °F 62.6 °F 30.05 in SW 0.8 mph 3.5 mph 85 % 0.00 in
06:53 67.3 °F 62.3 °F 30.06 in SW 1.1 mph 3.5 mph 84 % 0.00 in
06:58 67.3 °F 62.3 °F 30.05 in SW 0.9 mph 3.5 mph 84 % 0.00 in
07:03 67.3 °F 62.6 °F 30.05 in SW 2.6 mph 3.5 mph 85 % 0.00 in
07:08 67.3 °F 62.3 °F 30.05 in SW 2.6 mph 5.8 mph 84 % 0.00 in
07:13 67.3 °F 62.6 °F 30.05 in WSW 2.5 mph 3.5 mph 85 % 0.00 in
07:18 67.4 °F 62.4 °F 30.05 in SSW 4.1 mph 6.9 mph 84 % 0.00 in
07:23 67.5 °F 62.5 °F 30.05 in SW 2.9 mph 3.5 mph 84 % 0.00 in
07:28 67.6 °F 62.9 °F 30.05 in SW 3.6 mph 5.0 mph 85 % 0.00 in
07:33 67.8 °F 63.1 °F 30.06 in SSW 4.8 mph 8.1 mph 85 % 0.00 in
07:38 67.9 °F 63.2 °F 30.05 in SSW 3.8 mph 8.1 mph 85 % 0.00 in
07:43 68.1 °F 63.1 °F 30.06 in SW 2.9 mph 4.6 mph 84 % 0.00 in
07:49 68.3 °F 63.6 °F 30.05 in SW 2.4 mph 4.6 mph 85 % 0.00 in
07:54 68.4 °F 63.7 °F 30.05 in WSW 2.0 mph 3.5 mph 85 % 0.00 in
07:59 68.7 °F 63.7 °F 30.06 in SSW 2.4 mph 6.9 mph 84 % 0.00 in
08:04 69.0 °F 64.0 °F 30.05 in SW 1.7 mph 4.6 mph 84 % 0.00 in
08:09 69.3 °F 64.3 °F 30.05 in SW 1.0 mph 3.0 mph 84 % 0.00 in
08:14 69.5 °F 64.5 °F 30.05 in SW 4.2 mph 8.1 mph 84 % 0.00 in
08:19 69.9 °F 64.5 °F 30.04 in SW 4.0 mph 5.0 mph 83 % 0.00 in
08:24 70.2 °F 64.8 °F 30.05 in SSW 2.8 mph 6.9 mph 83 % 0.00 in
08:29 70.5 °F 65.1 °F 30.05 in SW 3.4 mph 4.6 mph 83 % 0.00 in
08:34 70.7 °F 64.9 °F 30.05 in SSW 4.7 mph 6.9 mph 82 % 0.00 in
08:40 71.0 °F 65.2 °F 30.05 in SW 3.2 mph 4.6 mph 82 % 0.00 in
08:45 71.3 °F 65.5 °F 30.05 in SSW 3.2 mph 8.1 mph 82 % 0.00 in
08:50 71.5 °F 65.7 °F 30.06 in SW 2.9 mph 4.6 mph 82 % 0.00 in
08:55 71.9 °F 65.8 °F 30.06 in West 2.9 mph 5.8 mph 81 % 0.00 in
09:00 72.2 °F 66.0 °F 30.05 in WSW 2.9 mph 8.1 mph 81 % 0.00 in
09:05 72.5 °F 66.0 °F 30.05 in WSW 5.5 mph 8.1 mph 80 % 0.00 in
09:10 72.8 °F 66.3 °F 30.05 in WSW 1.0 mph 8.0 mph 80 % 0.00 in
09:15 73.0 °F 66.5 °F 30.05 in WSW 2.8 mph 7.0 mph 80 % 0.00 in
09:20 73.3 °F 66.4 °F 30.05 in WSW 3.7 mph 7.0 mph 79 % 0.00 in
09:25 73.5 °F 66.6 °F 30.04 in SW 2.9 mph 5.0 mph 79 % 0.00 in
09:30 73.8 °F 66.9 °F 30.04 in WNW 3.1 mph 4.6 mph 79 % 0.00 in
09:36 74.0 °F 66.7 °F 30.04 in WNW 1.0 mph 3.5 mph 78 % 0.00 in
09:41 74.3 °F 67.0 °F 30.04 in WSW 3.0 mph 9.0 mph 78 % 0.00 in
09:46 74.7 °F 67.0 °F 30.04 in WSW 3.0 mph 9.0 mph 77 % 0.00 in
09:51 75.1 °F 67.0 °F 30.04 in WSW 3.0 mph 4.6 mph 76 % 0.00 in
09:56 75.4 °F 67.3 °F 30.04 in West 2.0 mph 5.0 mph 76 % 0.00 in
10:01 75.8 °F 67.3 °F 30.04 in West 3.8 mph 7.0 mph 75 % 0.00 in
10:06 76.0 °F 67.1 °F 30.04 in West 1.4 mph 3.5 mph 74 % 0.00 in
10:11 76.3 °F 67.8 °F 30.04 in WSW 3.1 mph 6.0 mph 75 % 0.00 in
10:16 76.5 °F 67.6 °F 30.04 in WNW 2.1 mph 3.5 mph 74 % 0.00 in
10:21 76.8 °F 67.5 °F 30.04 in NW 2.0 mph 5.8 mph 73 % 0.00 in
10:26 77.0 °F 68.1 °F 30.04 in NW 1.5 mph 3.5 mph 74 % 0.00 in
10:31 77.3 °F 68.4 °F 30.04 in WNW 3.8 mph 6.0 mph 74 % 0.00 in
10:36 77.6 °F 68.3 °F 30.04 in WNW 2.8 mph 4.0 mph 73 % 0.00 in
10:41 77.8 °F 68.0 °F 30.04 in SSW 5.6 mph 8.1 mph 72 % 0.00 in
10:46 78.2 °F 68.0 °F 30.04 in WSW 2.6 mph 3.5 mph 71 % 0.00 in
10:52 78.5 °F 68.7 °F 30.03 in WSW 2.3 mph 4.0 mph 72 % 0.00 in
10:57 78.7 °F 68.1 °F 30.03 in WNW 2.0 mph 5.8 mph 70 % 0.00 in
11:02 79.0 °F 68.4 °F 30.03 in WNW 4.2 mph 5.8 mph 70 % 0.00 in
11:07 79.4 °F 68.8 °F 30.03 in WNW 2.5 mph 5.0 mph 70 % 0.00 in
11:12 80.0 °F 68.5 °F 30.03 in WSW 1.7 mph 3.5 mph 68 % 0.00 in
11:17 80.8 °F 69.2 °F 30.03 in WSW 2.2 mph 4.6 mph 68 % 0.00 in
11:22 81.9 °F 69.4 °F 30.03 in NW 3.6 mph 5.8 mph 66 % 0.00 in
11:27 82.9 °F 69.0 °F 30.02 in WSW 2.2 mph 3.5 mph 63 % 0.00 in
11:32 83.8 °F 68.9 °F 30.02 in WSW 3.9 mph 8.1 mph 61 % 0.00 in
11:37 84.6 °F 69.2 °F 30.02 in West 2.9 mph 4.6 mph 60 % 0.00 in
11:43 85.4 °F 69.4 °F 30.02 in West 0.6 mph 4.6 mph 59 % 0.00 in
11:48 86.1 °F 69.6 °F 30.02 in SSW 3.2 mph 6.0 mph 58 % 0.00 in
11:53 86.7 °F 68.6 °F 30.01 in West 1.1 mph 5.8 mph 55 % 0.00 in
11:58 87.3 °F 68.1 °F 30.01 in SW 3.0 mph 4.6 mph 53 % 0.00 in
12:03 87.8 °F 69.1 °F 30.01 in SW 3.1 mph 5.8 mph 54 % 0.00 in
12:08 88.2 °F 68.4 °F 30.01 in West 2.4 mph 5.8 mph 52 % 0.00 in
12:13 88.8 °F 68.3 °F 30.01 in WSW 3.5 mph 5.8 mph 51 % 0.00 in
12:18 89.0 °F 67.9 °F 30.01 in SW 3.4 mph 6.9 mph 50 % 0.00 in
12:23 89.1 °F 67.5 °F 30.01 in WSW 3.0 mph 5.8 mph 49 % 0.00 in
12:28 89.3 °F 68.8 °F 30.00 in South 4.5 mph 5.8 mph 51 % 0.00 in
12:33 89.4 °F 67.1 °F 30.00 in SW 4.3 mph 8.1 mph 48 % 0.00 in
12:38 89.7 °F 68.0 °F 30.00 in SW 2.0 mph 3.5 mph 49 % 0.00 in
12:43 89.9 °F 68.2 °F 30.00 in SW 2.9 mph 6.9 mph 49 % 0.00 in
12:49 90.1 °F 66.5 °F 30.00 in NW 2.4 mph 4.6 mph 46 % 0.00 in
12:54 90.3 °F 67.9 °F 29.99 in West 0.7 mph 3.5 mph 48 % 0.00 in
12:59 90.5 °F 66.3 °F 29.99 in SW 2.7 mph 3.5 mph 45 % 0.00 in
13:04 90.7 °F 67.1 °F 29.99 in SW 1.9 mph 3.5 mph 46 % 0.00 in
13:09 90.8 °F 66.5 °F 29.99 in West 1.9 mph 3.5 mph 45 % 0.00 in
13:14 91.2 °F 65.6 °F 29.99 in NW 2.7 mph 3.5 mph 43 % 0.00 in
13:19 91.4 °F 67.1 °F 29.99 in SW 3.0 mph 4.0 mph 45 % 0.00 in
13:24 91.5 °F 66.5 °F 29.99 in WSW 1.4 mph 3.5 mph 44 % 0.00 in
13:29 91.4 °F 63.0 °F 29.98 in WNW 5.0 mph 6.9 mph 39 % 0.00 in
13:34 91.5 °F 64.5 °F 29.98 in WNW 6.6 mph 10.4 mph 41 % 0.00 in
13:40 91.5 °F 64.5 °F 29.98 in South 2.9 mph 4.6 mph 41 % 0.00 in
13:45 91.5 °F 64.5 °F 29.97 in SW 2.9 mph 6.9 mph 41 % 0.00 in
13:50 91.5 °F 64.5 °F 29.97 in WSW 5.8 mph 9.2 mph 41 % 0.00 in
13:55 91.5 °F 63.8 °F 29.97 in NW 3.8 mph 6.0 mph 40 % 0.00 in
14:00 91.6 °F 64.6 °F 29.96 in WSW 4.9 mph 8.1 mph 41 % 0.00 in
14:05 91.5 °F 64.5 °F 29.96 in SW 3.6 mph 5.8 mph 41 % 0.00 in
14:10 91.6 °F 65.3 °F 29.96 in WSW 3.6 mph 5.8 mph 42 % 0.00 in
14:15 91.8 °F 62.6 °F 29.96 in SW 4.6 mph 7.0 mph 38 % 0.00 in
14:20 91.9 °F 64.1 °F 29.95 in West 1.7 mph 3.5 mph 40 % 0.00 in
14:25 92.2 °F 64.4 °F 29.95 in SW 2.5 mph 8.1 mph 40 % 0.00 in
14:30 92.2 °F 64.4 °F 29.95 in SSW 2.8 mph 9.2 mph 40 % 0.00 in
14:35 92.4 °F 62.4 °F 29.95 in WSW 4.1 mph 4.1 mph 37 % 0.00 in
14:40 92.4 °F 63.1 °F 29.95 in SW 3.9 mph 7.0 mph 38 % 0.00 in
14:46 92.4 °F 62.4 °F 29.95 in WSW 2.0 mph 9.0 mph 37 % 0.00 in
14:51 92.5 °F 63.2 °F 29.95 in WSW 5.0 mph 7.0 mph 38 % 0.00 in
14:56 92.5 °F 62.4 °F 29.94 in SW 4.4 mph 8.1 mph 37 % 0.00 in
15:01 92.6 °F 63.3 °F 29.94 in SW 3.5 mph 8.1 mph 38 % 0.00 in
15:06 92.7 °F 63.4 °F 29.94 in WSW 1.9 mph 10.4 mph 38 % 0.00 in
15:11 92.8 °F 64.2 °F 29.94 in WSW 4.4 mph 6.9 mph 39 % 0.00 in
15:16 92.9 °F 62.8 °F 29.94 in SSW 3.2 mph 5.8 mph 37 % 0.00 in
15:21 93.0 °F 64.4 °F 29.94 in West 3.8 mph 6.9 mph 39 % 0.00 in
15:26 93.0 °F 63.6 °F 29.94 in West 3.6 mph 5.8 mph 38 % 0.00 in
15:31 92.9 °F 62.8 °F 29.94 in SW 5.1 mph 6.9 mph 37 % 0.00 in
15:36 92.9 °F 63.6 °F 29.94 in West 4.2 mph 8.1 mph 38 % 0.00 in
15:41 92.9 °F 63.6 °F 29.93 in SW 2.1 mph 3.5 mph 38 % 0.00 in
15:46 92.9 °F 64.3 °F 29.94 in WNW 1.4 mph 9.2 mph 39 % 0.00 in
15:51 92.8 °F 64.9 °F 29.93 in NW 1.1 mph 2.3 mph 40 % 0.00 in
15:57 92.9 °F 64.3 °F 29.93 in SSW 1.6 mph 3.5 mph 39 % 0.00 in
16:07 93.1 °F 65.9 °F 29.93 in SSW 0.8 mph 5.0 mph 41 % 0.00 in
16:12 93.1 °F 66.6 °F 29.92 in SW 3.3 mph 5.8 mph 42 % 0.00 in
16:17 93.0 °F 67.2 °F 29.92 in WSW 3.2 mph 6.9 mph 43 % 0.00 in
16:22 93.0 °F 68.5 °F 29.92 in SSW 3.5 mph 6.9 mph 45 % 0.00 in
16:27 92.9 °F 67.1 °F 29.92 in SSW 0.4 mph 2.3 mph 43 % 0.00 in
16:32 92.6 °F 67.5 °F 29.92 in SW 2.6 mph 4.6 mph 44 % 0.00 in
16:37 92.2 °F 67.8 °F 29.92 in SE 0.6 mph 2.3 mph 45 % 0.00 in
16:42 91.8 °F 68.1 °F 29.92 in WSW 1.8 mph 3.5 mph 46 % 0.00 in
16:47 91.6 °F 67.3 °F 29.92 in SSW 3.8 mph 7.0 mph 45 % 0.00 in
16:52 91.5 °F 67.2 °F 29.92 in SSW 3.9 mph 5.8 mph 45 % 0.00 in
17:02 91.1 °F 67.4 °F 29.93 in SSW 0.9 mph 3.5 mph 46 % 0.00 in
17:08 90.7 °F 67.7 °F 29.93 in South 0.7 mph 2.3 mph 47 % 0.00 in
17:13 90.1 °F 66.5 °F 29.93 in SSE 1.4 mph 3.5 mph 46 % 0.00 in
17:18 89.5 °F 66.6 °F 29.93 in SE 0.8 mph 3.5 mph 47 % 0.00 in
17:23 89.1 °F 67.5 °F 29.93 in SW 3.9 mph 8.0 mph 49 % 0.00 in
17:28 88.1 °F 65.9 °F 29.96 in WNW 6.8 mph 15.0 mph 48 % 0.00 in
17:33 86.3 °F 65.5 °F 29.95 in NNE 2.4 mph 11.0 mph 50 % 0.00 in
17:39 83.6 °F 63.6 °F 29.95 in NNE 8.3 mph 15.0 mph 51 % 0.00 in
17:44 81.7 °F 64.0 °F 29.96 in WNW 4.4 mph 10.4 mph 55 % 0.00 in
17:49 80.7 °F 65.5 °F 29.96 in NNE 3.4 mph 5.8 mph 60 % 0.00 in
17:59 79.2 °F 67.7 °F 29.96 in ESE 0.9 mph 2.3 mph 68 % 0.07 in
18:04 78.2 °F 68.0 °F 29.97 in South 1.1 mph 2.3 mph 71 % 0.07 in
18:09 77.5 °F 68.2 °F 29.98 in South 1.3 mph 2.3 mph 73 % 0.07 in
18:14 76.8 °F 67.9 °F 29.98 in South 0.3 mph 1.2 mph 74 % 0.07 in
18:19 76.0 °F 68.3 °F 29.99 in SW 2.8 mph 4.0 mph 77 % 0.08 in
18:24 75.2 °F 67.9 °F 30.00 in SSW 0.8 mph 2.3 mph 78 % 0.08 in
18:30 74.5 °F 67.6 °F 30.00 in SW 2.7 mph 3.5 mph 79 % 0.08 in
18:35 73.9 °F 67.3 °F 30.00 in SW 1.3 mph 3.5 mph 80 % 0.08 in
18:40 73.3 °F 67.1 °F 30.00 in WSW 1.3 mph 4.6 mph 81 % 0.08 in
18:45 72.8 °F 67.0 °F 30.00 in West 1.3 mph 3.5 mph 82 % 0.08 in
18:50 72.3 °F 66.8 °F 30.00 in SW 0.7 mph 2.0 mph 83 % 0.08 in
18:55 72.0 °F 67.2 °F 30.00 in WSW 1.7 mph 3.5 mph 85 % 0.02 in
19:00 71.7 °F 66.9 °F 30.00 in SSW 2.0 mph 3.5 mph 85 % 0.01 in
19:05 71.5 °F 67.4 °F 30.00 in SSW 1.0 mph 2.3 mph 87 % 0.01 in
19:10 71.3 °F 67.6 °F 29.99 in SE 0.2 mph 3.5 mph 88 % 0.01 in
19:15 71.2 °F 67.5 °F 29.99 in Calm   1.2 mph 88 % 0.01 in
19:20 71.1 °F 67.7 °F 29.99 in SSW 0.4 mph 3.5 mph 89 % 0.00 in
19:26 71.0 °F 67.9 °F 29.99 in Calm   5.0 mph 90 % 0.00 in
19:31 71.0 °F 67.9 °F 29.99 in West 1.0 mph 3.0 mph 90 % 0.00 in
19:36 70.9 °F 67.8 °F 29.99 in Calm   2.0 mph 90 % 0.00 in
19:41 70.9 °F 67.8 °F 30.00 in West 0.7 mph 2.3 mph 90 % 0.00 in
19:45 70.9 °F 68.1 °F 29.99 in West 0.4 mph 1.2 mph 91 % 0.00 in
19:51 70.9 °F 68.1 °F 29.99 in West 1.0 mph 2.0 mph 91 % 0.00 in
19:56 70.9 °F 68.5 °F 30.00 in Calm   1.0 mph 92 % 0.00 in
20:01 70.9 °F 68.5 °F 30.00 in Calm   1.2 mph 92 % 0.00 in
20:06 70.8 °F 68.4 °F 30.01 in Calm   1.2 mph 92 % 0.00 in
20:11 70.8 °F 68.4 °F 30.01 in West 0.1 mph 1.2 mph 92 % 0.00 in
20:16 70.8 °F 68.4 °F 30.01 in Calm     92 % 0.00 in
20:21 70.8 °F 68.4 °F 30.01 in Calm     92 % 0.00 in
20:26 70.9 °F 68.5 °F 30.01 in Calm     92 % 0.00 in
20:31 70.9 °F 68.8 °F 30.02 in Calm     93 % 0.00 in
20:36 70.9 °F 68.8 °F 30.02 in West 0.5 mph 3.0 mph 93 % 0.00 in
20:41 71.0 °F 68.9 °F 30.02 in West 1.2 mph 2.3 mph 93 % 0.00 in
20:46 71.1 °F 69.0 °F 30.03 in WNW 0.9 mph 3.0 mph 93 % 0.00 in
20:51 71.1 °F 69.0 °F 30.03 in WNW 0.3 mph 1.2 mph 93 % 0.00 in
20:57 71.2 °F 69.1 °F 30.03 in Calm     93 % 0.00 in
21:02 71.2 °F 69.4 °F 30.03 in Calm   1.2 mph 94 % 0.00 in
21:07 71.3 °F 69.5 °F 30.03 in WNW 0.8 mph 2.3 mph 94 % 0.00 in
21:12 71.3 °F 69.5 °F 30.03 in WNW 0.3 mph 2.3 mph 94 % 0.00 in
21:17 71.4 °F 69.6 °F 30.03 in Calm     94 % 0.00 in
21:22 71.4 °F 69.6 °F 30.03 in WNW 0.1 mph   94 % 0.00 in
21:27 71.5 °F 69.7 °F 30.03 in Calm     94 % 0.00 in
21:32 71.5 °F 69.7 °F 30.04 in NNE 0.8 mph 2.3 mph 94 % 0.00 in
21:37 71.5 °F 69.7 °F 30.04 in NNW 1.8 mph 3.5 mph 94 % 0.00 in
21:43 71.3 °F 68.9 °F 30.05 in North 4.4 mph 8.1 mph 92 % 0.00 in
21:48 71.2 °F 68.1 °F 30.05 in NE 4.1 mph 8.1 mph 90 % 0.00 in
21:53 71.2 °F 67.5 °F 30.05 in NNE 4.7 mph 8.1 mph 88 % 0.00 in
21:58 71.1 °F 66.7 °F 30.05 in North 8.0 mph 11.5 mph 86 % 0.00 in
22:03 71.1 °F 66.7 °F 30.05 in NE 6.6 mph 11.0 mph 86 % 0.00 in
22:08 71.1 °F 66.0 °F 30.06 in NNE 6.8 mph 11.5 mph 84 % 0.00 in
22:18 71.0 °F 65.2 °F 30.06 in NNW 8.9 mph 12.7 mph 82 % 0.00 in
22:23 70.9 °F 64.8 °F 30.06 in NE 9.5 mph 15.0 mph 81 % 0.00 in
22:28 70.8 °F 64.3 °F 30.06 in NNW 5.8 mph 13.8 mph 80 % 0.00 in
22:33 70.7 °F 63.5 °F 30.06 in NNE 9.1 mph 16.1 mph 78 % 0.00 in
22:38 70.6 °F 63.4 °F 30.07 in NE 6.3 mph 13.8 mph 78 % 0.00 in
22:44 70.4 °F 63.2 °F 30.07 in NNW 9.0 mph 16.1 mph 78 % 0.00 in
22:49 70.3 °F 63.1 °F 30.07 in North 6.8 mph 11.5 mph 78 % 0.00 in
22:54 70.2 °F 63.0 °F 30.08 in North 6.6 mph 11.0 mph 78 % 0.00 in
22:59 70.2 °F 62.3 °F 30.08 in North 7.9 mph 11.5 mph 76 % 0.00 in
23:04 70.1 °F 61.4 °F 30.08 in NNW 6.3 mph 13.0 mph 74 % 0.00 in
23:09 70.0 °F 60.9 °F 30.08 in North 5.5 mph 11.5 mph 73 % 0.00 in
23:14 69.9 °F 61.2 °F 30.09 in NNE 5.9 mph 12.0 mph 74 % 0.00 in
23:19 69.9 °F 61.2 °F 30.09 in North 5.4 mph 10.4 mph 74 % 0.00 in
23:24 69.9 °F 60.8 °F 30.09 in NNW 6.5 mph 10.4 mph 73 % 0.00 in
23:29 69.8 °F 60.4 °F 30.09 in NNE 5.1 mph 11.5 mph 72 % 0.00 in
23:35 69.7 °F 60.3 °F 30.10 in North 6.4 mph 12.7 mph 72 % 0.00 in
23:40 69.7 °F 60.3 °F 30.10 in NNW 7.5 mph 13.8 mph 72 % 0.00 in
23:45 69.6 °F 60.6 °F 30.10 in NE 8.1 mph 11.5 mph 73 % 0.00 in
23:50 69.5 °F 60.1 °F 30.10 in NNE 5.7 mph 12.0 mph 72 % 0.00 in
23:55 69.4 °F 59.6 °F 30.10 in NNE 6.0 mph 11.5 mph 71 % 0.00 in
Crab Meadow Weather
Compliments of Weather Underground - 3 mb

Script developed by  Jim McMurry - jmcmurry@mwt.net Adapted for the template by  Wim van der Kuil - Leuven-Template.eu

Barometer: A barometer is an instrument used to measure atmospheric pressure. A barometer is commonly used for weather prediction, as high air pressure in a region indicates fair weather while low pressure indicates that storms are more likely. When used in combination with wind observations, reasonably accurate short-term forecasts can be made.